createdAt,value
2023-01-06T00:00:37.060Z,6.20
2023-01-06T00:06:04.129Z,5.87
2023-01-06T00:11:26.350Z,5.80
2023-01-06T00:16:47.913Z,6.33
2023-01-06T00:22:09.829Z,6.27
2023-01-06T00:27:32.617Z,6.70
2023-01-06T00:32:54.116Z,6.40
2023-01-06T00:38:15.203Z,5.67
2023-01-06T00:43:36.621Z,6.07
2023-01-06T00:49:04.999Z,5.83
2023-01-06T00:54:28.613Z,5.33
2023-01-06T00:59:49.973Z,5.90
2023-01-06T01:05:11.814Z,5.13
2023-01-06T01:10:34.064Z,4.63
2023-01-06T01:15:55.528Z,5.57
2023-01-06T01:21:16.682Z,5.53
2023-01-06T01:26:38.943Z,5.10
2023-01-06T01:32:00.743Z,4.77
2023-01-06T01:37:22.543Z,4.97
2023-01-06T01:42:43.770Z,4.23
2023-01-06T01:48:20.361Z,4.40
2023-01-06T01:54:07.949Z,4.90
2023-01-06T01:59:32.549Z,4.80
2023-01-06T02:04:55.406Z,4.67
2023-01-06T02:10:22.468Z,4.60
2023-01-06T02:15:44.565Z,4.43
2023-01-06T02:21:22.652Z,4.67
2023-01-06T02:27:08.531Z,4.80
2023-01-06T02:32:48.208Z,5.30
2023-01-06T02:38:42.103Z,4.47
2023-01-06T02:44:30.395Z,4.80
2023-01-06T02:50:30.656Z,4.60
2023-01-06T02:55:55.932Z,4.57
2023-01-06T03:01:44.610Z,5.00
2023-01-06T03:07:08.941Z,4.70
2023-01-06T03:13:05.125Z,4.23
2023-01-06T03:18:27.454Z,4.47
2023-01-06T03:23:50.155Z,4.60
2023-01-06T03:29:14.991Z,4.80
2023-01-06T03:35:00.151Z,4.40
2023-01-06T03:40:25.192Z,4.23
2023-01-06T03:46:12.150Z,4.63
2023-01-06T03:52:05.184Z,4.50
2023-01-06T03:57:33.216Z,4.00
2023-01-06T04:02:54.736Z,3.20
2023-01-06T04:08:18.719Z,3.07
2023-01-06T04:13:40.107Z,3.13
2023-01-06T04:19:01.310Z,3.23
2023-01-06T04:24:22.669Z,3.03
2023-01-06T04:29:43.827Z,3.37
2023-01-06T04:35:07.513Z,3.07
2023-01-06T04:40:29.150Z,3.10
2023-01-06T04:45:53.480Z,3.10
2023-01-06T04:51:15.187Z,3.10
2023-01-06T04:56:36.888Z,2.70
2023-01-06T05:01:58.476Z,3.27
2023-01-06T05:07:19.662Z,2.73
2023-01-06T05:12:41.192Z,2.63
2023-01-06T05:18:02.825Z,3.13
2023-01-06T05:23:24.388Z,3.20
2023-01-06T05:28:46.220Z,3.43
2023-01-06T05:34:07.671Z,2.90
2023-01-06T05:39:28.806Z,2.43
2023-01-06T05:44:50.363Z,2.17
2023-01-06T05:50:11.840Z,2.90
2023-01-06T05:55:33.199Z,2.33
2023-01-06T06:00:54.465Z,2.73
2023-01-06T06:06:16.662Z,2.60
2023-01-06T06:11:38.056Z,2.40
2023-01-06T06:16:59.603Z,2.47
2023-01-06T06:22:21.320Z,2.20
2023-01-06T06:27:42.841Z,2.60
2023-01-06T06:33:04.527Z,2.23
2023-01-06T06:38:26.196Z,1.97
2023-01-06T06:43:50.042Z,2.20
2023-01-06T06:49:11.573Z,2.40
2023-01-06T06:54:33.167Z,2.27
2023-01-06T06:59:54.794Z,2.60
2023-01-06T07:05:19.493Z,2.63
2023-01-06T07:10:41.518Z,2.40
2023-01-06T07:16:02.901Z,2.40
2023-01-06T07:21:24.418Z,2.40
2023-01-06T07:26:45.929Z,2.50
2023-01-06T07:32:09.407Z,2.20
2023-01-06T07:37:31.595Z,2.40
2023-01-06T07:42:53.177Z,2.37
2023-01-06T07:48:14.953Z,2.43
2023-01-06T07:53:36.497Z,2.30
2023-01-06T07:58:58.095Z,2.13
2023-01-06T08:04:19.565Z,2.30
2023-01-06T08:09:41.115Z,2.43
2023-01-06T08:15:03.005Z,2.30
2023-01-06T08:20:24.517Z,2.13
2023-01-06T08:25:46.156Z,2.73
2023-01-06T08:31:13.627Z,2.47
2023-01-06T08:36:34.936Z,2.50
2023-01-06T08:41:59.554Z,2.23
2023-01-06T08:47:21.304Z,2.20
2023-01-06T08:52:42.664Z,1.90
2023-01-06T08:58:04.074Z,2.00
2023-01-06T09:03:25.556Z,1.93
2023-01-06T09:08:48.746Z,1.77
2023-01-06T09:14:12.061Z,1.70
2023-01-06T09:19:33.398Z,1.70
2023-01-06T09:24:55.016Z,1.17
2023-01-06T09:30:16.329Z,1.53
2023-01-06T09:35:37.765Z,1.50
2023-01-06T09:41:08.004Z,1.10
2023-01-06T09:46:37.516Z,1.10
2023-01-06T09:52:03.720Z,1.00
2023-01-06T09:57:58.238Z,1.20
2023-01-06T10:03:23.274Z,1.10
2023-01-06T10:09:18.665Z,1.07
2023-01-06T10:15:01.783Z,1.00
2023-01-06T10:20:54.552Z,1.00
2023-01-06T10:26:24.751Z,1.00
2023-01-06T10:31:48.452Z,0.93
2023-01-06T10:37:33.279Z,1.13
2023-01-06T10:43:14.852Z,1.10
2023-01-06T10:48:36.440Z,1.10
2023-01-06T10:54:01.500Z,1.10
2023-01-06T10:59:22.859Z,1.10
2023-01-06T11:04:52.520Z,0.93
2023-01-06T11:10:25.715Z,1.10
2023-01-06T11:15:48.039Z,0.93
2023-01-06T11:21:16.436Z,1.00
2023-01-06T11:26:50.337Z,1.10
2023-01-06T11:32:20.337Z,0.90
2023-01-06T11:37:43.434Z,1.10
2023-01-06T11:43:13.763Z,0.90
2023-01-06T11:48:37.197Z,0.70
2023-01-06T11:53:58.933Z,0.60
2023-01-06T11:59:21.883Z,0.77
2023-01-06T12:04:51.604Z,0.60
2023-01-06T12:10:23.128Z,0.73
2023-01-06T12:15:50.707Z,0.80
2023-01-06T12:21:19.212Z,0.70
2023-01-06T12:26:43.027Z,0.77
2023-01-06T12:32:27.738Z,0.67
2023-01-06T12:37:54.743Z,0.70
2023-01-06T12:43:28.514Z,0.90
2023-01-06T12:48:57.026Z,0.97
2023-01-06T12:54:22.641Z,0.70
2023-01-06T12:59:55.103Z,1.00
2023-01-06T13:05:29.389Z,0.70
2023-01-06T13:11:03.931Z,0.70
2023-01-06T13:16:45.901Z,0.80
2023-01-06T13:22:10.665Z,0.70
2023-01-06T13:27:43.642Z,0.70
2023-01-06T13:33:22.106Z,0.63
2023-01-06T13:38:52.332Z,0.80
2023-01-06T13:44:22.538Z,0.60
2023-01-06T13:49:44.325Z,0.80
2023-01-06T13:55:22.632Z,0.80
2023-01-06T14:00:44.192Z,0.70
2023-01-06T14:06:31.384Z,0.80
2023-01-06T14:11:53.874Z,0.77
2023-01-06T14:17:39.008Z,0.80
2023-01-06T14:23:02.153Z,0.97
2023-01-06T14:28:30.147Z,0.90
2023-01-06T14:33:57.599Z,0.80
2023-01-06T14:39:24.536Z,0.90
2023-01-06T14:44:49.163Z,0.87
2023-01-06T14:50:18.150Z,1.00
2023-01-06T14:55:43.868Z,0.90
2023-01-06T15:01:07.573Z,0.93
2023-01-06T15:06:31.595Z,1.17
2023-01-06T15:11:53.104Z,0.90
2023-01-06T15:17:16.639Z,0.87
2023-01-06T15:22:39.345Z,1.10
2023-01-06T15:28:01.008Z,0.80
2023-01-06T15:33:26.048Z,0.93
2023-01-06T15:38:48.144Z,1.10
2023-01-06T15:44:36.024Z,1.00
2023-01-06T15:50:02.612Z,1.20
2023-01-06T15:55:34.634Z,1.17
2023-01-06T16:01:17.061Z,1.00
2023-01-06T16:06:39.502Z,1.00
2023-01-06T16:12:04.291Z,1.10
2023-01-06T16:17:38.077Z,1.10
2023-01-06T16:22:59.342Z,1.00
2023-01-06T16:28:22.204Z,1.10
2023-01-06T16:33:48.293Z,1.13
2023-01-06T16:39:09.563Z,1.30
2023-01-06T16:44:32.420Z,1.30
2023-01-06T16:49:54.434Z,1.17
2023-01-06T16:55:17.627Z,1.30
2023-01-06T17:00:41.143Z,1.40
2023-01-06T17:06:02.763Z,1.20
2023-01-06T17:11:27.023Z,1.40
2023-01-06T17:16:50.638Z,1.40
2023-01-06T17:22:30.900Z,1.60
2023-01-06T17:27:52.168Z,1.73
2023-01-06T17:33:15.955Z,1.40
2023-01-06T17:38:39.159Z,2.37
2023-01-06T17:44:01.525Z,2.13
2023-01-06T17:49:22.804Z,1.80
2023-01-06T17:55:11.575Z,1.80
2023-01-06T18:00:35.334Z,1.73
2023-01-06T18:06:38.014Z,1.40
2023-01-06T18:12:05.470Z,1.67
2023-01-06T18:17:30.137Z,1.60
2023-01-06T18:22:51.392Z,1.73
2023-01-06T18:28:19.092Z,1.60
2023-01-06T18:33:40.439Z,1.80
2023-01-06T18:39:02.436Z,1.80
2023-01-06T18:44:24.631Z,1.60
2023-01-06T18:49:46.657Z,1.90
2023-01-06T18:55:39.788Z,1.90
2023-01-06T19:01:03.591Z,1.77
2023-01-06T19:06:47.918Z,1.90
2023-01-06T19:12:09.545Z,1.77
2023-01-06T19:17:38.543Z,1.80
2023-01-06T19:22:59.724Z,2.20
2023-01-06T19:28:24.440Z,1.90
2023-01-06T19:33:59.981Z,2.30
2023-01-06T19:39:24.350Z,2.53
2023-01-06T19:44:49.493Z,2.40
2023-01-06T19:50:21.676Z,2.43
2023-01-06T19:55:42.987Z,2.87
2023-01-06T20:01:04.648Z,3.10
2023-01-06T20:06:26.144Z,3.60
2023-01-06T20:11:47.881Z,3.50
2023-01-06T20:17:09.997Z,3.33
2023-01-06T20:22:31.560Z,2.93
2023-01-06T20:27:53.281Z,2.93
2023-01-06T20:33:15.060Z,3.00
2023-01-06T20:38:36.446Z,3.37
2023-01-06T20:43:57.935Z,3.40
2023-01-06T20:49:20.632Z,3.37
2023-01-06T20:54:42.329Z,3.60
2023-01-06T21:00:04.716Z,2.83
2023-01-06T21:05:26.441Z,2.70
2023-01-06T21:10:47.892Z,2.60
2023-01-06T21:16:09.655Z,3.20
2023-01-06T21:21:30.971Z,3.20
2023-01-06T21:26:52.712Z,3.53
2023-01-06T21:32:14.147Z,3.77
2023-01-06T21:37:35.668Z,3.60
2023-01-06T21:43:09.247Z,3.40
2023-01-06T21:48:30.652Z,3.63
2023-01-06T21:53:52.233Z,3.57
2023-01-06T21:59:13.804Z,3.27
2023-01-06T22:04:35.359Z,3.87
2023-01-06T22:09:58.143Z,3.60
2023-01-06T22:15:20.778Z,3.67
2023-01-06T22:20:42.895Z,3.53
2023-01-06T22:26:04.467Z,3.47
2023-01-06T22:31:26.390Z,3.90
2023-01-06T22:36:48.616Z,3.63
2023-01-06T22:42:10.350Z,3.40
2023-01-06T22:47:32.009Z,3.37
2023-01-06T22:52:53.650Z,3.53
2023-01-06T22:58:17.820Z,3.60
2023-01-06T23:03:39.502Z,3.07
2023-01-06T23:09:01.328Z,3.10
2023-01-06T23:14:23.441Z,3.40
2023-01-06T23:19:44.738Z,3.20
2023-01-06T23:25:06.509Z,3.30
2023-01-06T23:30:28.023Z,3.10
2023-01-06T23:35:49.560Z,3.03
2023-01-06T23:41:17.365Z,3.20
2023-01-06T23:46:40.263Z,3.17
2023-01-06T23:52:01.941Z,2.73
2023-01-06T23:57:23.451Z,2.50
